createdAt,value
2022-11-28T00:01:03.645Z,5.35
2022-11-28T00:03:31.175Z,5.40
2022-11-28T00:06:05.652Z,5.47
2022-11-28T00:08:33.256Z,5.55
2022-11-28T00:11:04.257Z,5.44
2022-11-28T00:13:32.709Z,5.43
2022-11-28T00:16:00.891Z,5.51
2022-11-28T00:18:28.345Z,5.52
2022-11-28T00:21:02.389Z,5.51
2022-11-28T00:23:35.849Z,5.41
2022-11-28T00:26:07.446Z,5.38
2022-11-28T00:28:34.958Z,5.35
2022-11-28T00:31:03.221Z,5.44
2022-11-28T00:33:31.294Z,5.33
2022-11-28T00:36:02.113Z,5.29
2022-11-28T00:38:29.729Z,5.33
2022-11-28T00:41:04.753Z,5.26
2022-11-28T00:43:32.366Z,5.54
2022-11-28T00:46:00.060Z,5.44
2022-11-28T00:48:27.658Z,5.45
2022-11-28T00:50:55.505Z,5.41
2022-11-28T00:53:23.023Z,5.51
2022-11-28T00:55:54.412Z,5.49
2022-11-28T00:58:24.435Z,5.48
2022-11-28T01:00:51.861Z,5.38
2022-11-28T01:03:19.242Z,5.44
2022-11-28T01:05:46.687Z,5.53
2022-11-28T01:08:13.961Z,5.51
2022-11-28T01:10:42.319Z,5.42
2022-11-28T01:13:09.992Z,5.53
2022-11-28T01:15:39.253Z,5.63
2022-11-28T01:18:06.705Z,5.59
2022-11-28T01:20:34.481Z,5.51
2022-11-28T01:23:01.815Z,5.40
2022-11-28T01:25:29.395Z,5.42
2022-11-28T01:27:56.709Z,5.39
2022-11-28T01:30:24.154Z,5.41
2022-11-28T01:32:51.563Z,5.40
2022-11-28T01:35:19.080Z,5.53
2022-11-28T01:37:46.439Z,5.55
2022-11-28T01:40:13.877Z,5.67
2022-11-28T01:42:41.473Z,5.62
2022-11-28T01:45:13.558Z,5.41
2022-11-28T01:47:40.917Z,5.42
2022-11-28T01:50:08.491Z,5.47
2022-11-28T01:52:36.936Z,5.51
2022-11-28T01:55:04.502Z,5.44
2022-11-28T01:57:31.849Z,5.41
2022-11-28T02:00:02.688Z,5.37
2022-11-28T02:02:46.995Z,5.49
2022-11-28T02:05:14.825Z,5.60
2022-11-28T02:07:42.231Z,5.41
2022-11-28T02:10:10.646Z,5.51
2022-11-28T02:12:57.158Z,5.42
2022-11-28T02:15:32.372Z,5.46
2022-11-28T02:17:59.726Z,5.38
2022-11-28T02:20:36.157Z,5.33
2022-11-28T02:23:09.808Z,5.53
2022-11-28T02:25:55.551Z,5.51
2022-11-28T02:28:35.083Z,5.42
2022-11-28T02:31:21.189Z,5.30
2022-11-28T02:33:52.826Z,5.28
2022-11-28T02:36:26.464Z,5.53
2022-11-28T02:38:57.283Z,5.47
2022-11-28T02:41:27.925Z,5.38
2022-11-28T02:44:04.714Z,5.48
2022-11-28T02:46:41.793Z,5.59
2022-11-28T02:49:11.932Z,5.60
2022-11-28T02:51:40.867Z,5.62
2022-11-28T02:54:09.146Z,5.56
2022-11-28T02:56:36.744Z,5.43
2022-11-28T02:59:04.218Z,5.37
2022-11-28T03:01:36.189Z,5.51
2022-11-28T03:04:12.686Z,5.48
2022-11-28T03:06:40.551Z,5.50
2022-11-28T03:09:07.870Z,5.53
2022-11-28T03:11:38.500Z,5.60
2022-11-28T03:14:14.876Z,5.55
2022-11-28T03:16:49.559Z,5.57
2022-11-28T03:19:22.244Z,5.63
2022-11-28T03:21:52.966Z,5.54
2022-11-28T03:24:23.044Z,5.60
2022-11-28T03:26:57.822Z,5.55
2022-11-28T03:29:32.956Z,5.33
2022-11-28T03:32:01.184Z,5.24
2022-11-28T03:34:32.819Z,5.39
2022-11-28T03:37:01.795Z,5.39
2022-11-28T03:39:30.413Z,5.53
2022-11-28T03:41:59.500Z,5.43
2022-11-28T03:44:35.992Z,5.61
2022-11-28T03:47:03.444Z,5.50
2022-11-28T03:49:34.965Z,5.59
2022-11-28T03:52:03.348Z,5.49
2022-11-28T03:54:43.125Z,5.38
2022-11-28T03:57:12.729Z,5.38
2022-11-28T03:59:41.758Z,5.40
2022-11-28T04:02:15.196Z,5.39
2022-11-28T04:04:48.453Z,5.34
2022-11-28T04:07:19.118Z,5.46
2022-11-28T04:10:09.510Z,5.40
2022-11-28T04:12:40.527Z,5.41
2022-11-28T04:15:18.161Z,5.34
2022-11-28T04:18:11.911Z,5.51
2022-11-28T04:20:41.795Z,5.58
2022-11-28T04:23:10.726Z,5.54
2022-11-28T04:25:38.951Z,5.67
2022-11-28T04:28:07.672Z,5.59
2022-11-28T04:30:35.133Z,5.54
2022-11-28T04:33:03.572Z,5.63
2022-11-28T04:35:31.598Z,5.65
2022-11-28T08:44:02.811Z,4.55
2022-11-28T08:46:30.831Z,4.80
2022-11-28T08:48:58.849Z,4.71
2022-11-28T08:51:26.506Z,4.77
2022-11-28T08:53:59.084Z,4.70
2022-11-28T08:56:27.173Z,4.78
2022-11-28T08:58:55.041Z,4.86
2022-11-28T09:01:23.393Z,4.79
2022-11-28T09:03:51.073Z,4.87
2022-11-28T09:06:18.655Z,4.84
2022-11-28T09:08:45.943Z,4.76
2022-11-28T09:11:14.381Z,4.77
2022-11-28T09:13:41.719Z,4.68
2022-11-28T09:16:09.395Z,4.74
2022-11-28T09:18:36.921Z,4.95
2022-11-28T09:21:05.344Z,4.87
2022-11-28T09:23:33.620Z,4.76
2022-11-28T09:26:01.726Z,4.90
2022-11-28T09:28:29.379Z,4.65
2022-11-28T09:31:00.594Z,4.70
2022-11-28T09:33:28.821Z,4.55
2022-11-28T09:35:56.402Z,4.51
2022-11-28T09:38:24.291Z,4.77
2022-11-28T09:40:51.776Z,4.62
2022-11-28T09:43:38.616Z,4.76
2022-11-28T09:46:06.361Z,4.67
2022-11-28T09:48:37.243Z,4.80
2022-11-28T09:51:25.435Z,4.79
2022-11-28T09:53:58.957Z,4.76
2022-11-28T09:56:26.318Z,4.71
2022-11-28T09:58:53.678Z,4.75
2022-11-28T10:01:33.036Z,4.65
2022-11-28T10:04:03.010Z,4.76
2022-11-28T10:06:51.532Z,4.83
2022-11-28T10:09:43.605Z,4.81
2022-11-28T10:12:11.379Z,4.94
2022-11-28T10:14:42.747Z,4.94
2022-11-28T10:17:15.227Z,4.88
2022-11-28T10:19:57.368Z,4.91
2022-11-28T10:22:48.396Z,4.75
2022-11-28T10:25:18.208Z,4.83
2022-11-28T10:27:45.846Z,4.81
2022-11-28T10:30:13.261Z,4.83
2022-11-28T10:32:42.432Z,4.63
2022-11-28T10:35:28.958Z,4.74
2022-11-28T10:37:56.509Z,4.72
2022-11-28T10:40:35.873Z,4.66
2022-11-28T10:43:23.469Z,4.77
2022-11-28T10:46:09.437Z,4.63
2022-11-28T10:48:55.421Z,4.62
2022-11-28T10:51:22.837Z,4.67
2022-11-28T10:54:02.654Z,4.75
2022-11-28T10:56:36.963Z,4.60
2022-11-28T10:59:10.549Z,4.57
2022-11-28T11:01:39.018Z,4.60
2022-11-28T11:04:06.563Z,4.64
2022-11-28T11:06:41.618Z,4.58
2022-11-28T11:09:10.014Z,4.62
2022-11-28T11:11:37.492Z,4.58
2022-11-28T11:14:08.839Z,4.56
2022-11-28T11:16:59.503Z,4.55
2022-11-28T11:19:29.990Z,4.68
2022-11-28T11:22:12.876Z,4.63
2022-11-28T11:24:40.290Z,4.68
2022-11-28T11:27:13.438Z,4.51
2022-11-28T11:29:41.580Z,4.67
2022-11-28T11:32:41.922Z,4.59
2022-11-28T11:35:15.444Z,4.35
2022-11-28T11:37:43.765Z,4.33
2022-11-28T11:40:20.785Z,4.55
2022-11-28T11:42:54.435Z,4.39
2022-11-28T11:45:28.230Z,4.35
2022-11-28T11:47:56.079Z,4.34
2022-11-28T11:50:24.103Z,4.39
2022-11-28T11:53:03.871Z,4.38
2022-11-28T11:55:32.070Z,4.41
2022-11-28T11:58:05.287Z,4.25
2022-11-28T12:00:38.025Z,4.18
2022-11-28T12:03:14.743Z,4.32
2022-11-28T12:06:12.744Z,4.33
2022-11-28T12:08:36.514Z,4.20
2022-11-28T12:11:13.594Z,4.24
2022-11-28T12:13:41.583Z,4.11
2022-11-28T12:16:13.980Z,4.33
2022-11-28T12:18:42.003Z,4.31
2022-11-28T12:21:14.258Z,4.41
2022-11-28T12:23:48.100Z,4.42
2022-11-28T12:26:16.066Z,4.29
2022-11-28T12:28:47.614Z,4.58
2022-11-28T12:31:24.412Z,4.48
2022-11-28T12:33:51.885Z,4.30
2022-11-28T12:36:25.332Z,4.25
2022-11-28T12:39:01.009Z,4.36
2022-11-28T12:41:33.028Z,4.37
2022-11-28T12:44:32.980Z,4.25
2022-11-28T12:47:23.753Z,4.07
2022-11-28T12:49:54.326Z,4.01
2022-11-28T12:52:25.083Z,3.97
2022-11-28T12:54:57.978Z,4.02
2022-11-28T12:57:28.606Z,4.09
2022-11-28T13:00:02.199Z,4.04
2022-11-28T13:02:54.225Z,3.91
2022-11-28T13:05:24.440Z,3.85
2022-11-28T13:07:58.298Z,3.92
2022-11-28T13:10:29.465Z,3.70
2022-11-28T13:12:58.447Z,3.81
2022-11-28T13:15:46.237Z,3.87
2022-11-28T13:18:13.785Z,4.04
2022-11-28T13:20:50.022Z,3.80
2022-11-28T13:23:30.088Z,4.03
2022-11-28T13:26:03.906Z,3.69
2022-11-28T13:28:33.903Z,3.65
2022-11-28T13:31:09.073Z,3.62
2022-11-28T13:33:49.305Z,3.54
2022-11-28T13:39:32.358Z,3.58
2022-11-28T13:42:44.273Z,3.57
2022-11-28T13:45:16.965Z,3.61
2022-11-28T13:47:45.006Z,3.70
2022-11-28T13:50:28.279Z,3.37
2022-11-28T13:53:15.742Z,3.34
2022-11-28T13:55:47.081Z,3.43
2022-11-28T13:58:24.554Z,3.53
2022-11-28T19:57:53.532Z,2.22
2022-11-28T20:00:22.124Z,2.20
2022-11-28T20:02:50.442Z,2.25
2022-11-28T20:05:18.607Z,2.28
2022-11-28T20:07:46.130Z,2.32
2022-11-28T20:10:13.785Z,2.21
2022-11-28T20:12:42.312Z,2.22
2022-11-28T20:15:13.791Z,2.24
2022-11-28T20:17:45.066Z,2.20
2022-11-28T20:20:13.270Z,2.22
2022-11-28T20:22:41.388Z,2.16
2022-11-28T20:25:08.942Z,2.16
2022-11-28T20:27:36.289Z,2.03
2022-11-28T20:30:06.050Z,2.25
2022-11-28T20:32:33.781Z,2.18
2022-11-28T20:35:01.394Z,2.03
2022-11-28T20:37:29.371Z,2.08
2022-11-28T20:39:57.570Z,2.17
2022-11-28T20:42:24.966Z,2.04
2022-11-28T20:44:52.592Z,1.86
2022-11-28T20:47:20.243Z,1.88
2022-11-28T20:49:47.528Z,2.02
2022-11-28T20:52:14.852Z,1.96
2022-11-28T20:54:42.493Z,2.13
2022-11-28T20:57:25.254Z,2.19
2022-11-28T20:59:55.434Z,2.17
2022-11-28T21:02:23.156Z,2.07
2022-11-28T21:04:50.785Z,2.11
2022-11-28T21:07:18.712Z,2.17
2022-11-28T21:09:46.319Z,1.99
2022-11-28T21:12:19.475Z,1.82
2022-11-28T21:14:48.441Z,1.92
2022-11-28T21:17:15.731Z,1.82
2022-11-28T21:19:43.660Z,1.73
2022-11-28T21:22:11.481Z,1.84
2022-11-28T21:24:38.884Z,1.87
2022-11-28T21:27:06.267Z,2.12
2022-11-28T21:29:33.612Z,2.05
2022-11-28T21:32:01.023Z,1.93
2022-11-28T21:34:28.499Z,1.93
2022-11-28T21:36:55.980Z,1.87
2022-11-28T21:39:23.711Z,1.82
2022-11-28T21:41:51.298Z,1.83
2022-11-28T21:44:19.030Z,1.85
2022-11-28T21:46:46.334Z,1.91
2022-11-28T21:49:13.737Z,1.90
2022-11-28T21:51:41.216Z,2.03
2022-11-28T21:54:10.101Z,1.88
2022-11-28T21:56:37.813Z,2.06
2022-11-28T21:59:05.855Z,1.94
2022-11-28T22:01:33.500Z,1.99
2022-11-28T22:04:03.145Z,1.88
2022-11-28T22:06:31.884Z,1.96
2022-11-28T22:09:08.284Z,1.90
2022-11-28T22:11:37.630Z,1.84
2022-11-28T22:14:05.246Z,1.90
2022-11-28T22:16:33.293Z,1.69
2022-11-28T22:19:00.800Z,1.94
2022-11-28T22:21:51.506Z,1.93
2022-11-28T22:24:15.713Z,1.86
2022-11-28T22:26:44.786Z,2.01
2022-11-28T22:29:13.664Z,1.93
2022-11-28T22:31:41.559Z,1.81
2022-11-28T22:34:09.262Z,1.85
2022-11-28T22:36:36.848Z,1.88
2022-11-28T22:39:04.883Z,1.94
2022-11-28T22:41:33.362Z,1.91
2022-11-28T22:44:01.433Z,1.93
2022-11-28T22:46:30.783Z,1.82
2022-11-28T22:49:00.146Z,1.97
2022-11-28T22:51:28.215Z,1.88
2022-11-28T22:53:56.572Z,2.03
2022-11-28T22:56:26.443Z,2.01
2022-11-28T22:58:54.406Z,1.98
2022-11-28T23:01:22.737Z,1.80
2022-11-28T23:03:50.097Z,1.87
2022-11-28T23:06:19.913Z,1.87
2022-11-28T23:08:52.452Z,1.93
2022-11-28T23:11:21.038Z,1.84
2022-11-28T23:13:49.323Z,1.96
2022-11-28T23:16:21.498Z,2.00
2022-11-28T23:18:49.917Z,1.93
2022-11-28T23:21:18.188Z,1.80
2022-11-28T23:23:46.217Z,1.90
2022-11-28T23:26:14.500Z,1.78
2022-11-28T23:28:41.967Z,2.01
2022-11-28T23:31:10.804Z,1.78
2022-11-28T23:33:38.813Z,1.86
2022-11-28T23:36:16.515Z,2.03
2022-11-28T23:38:44.089Z,1.80
2022-11-28T23:41:12.076Z,1.85
2022-11-28T23:43:39.519Z,1.93
2022-11-28T23:46:07.017Z,1.77
2022-11-28T23:48:34.450Z,1.98
2022-11-28T23:51:02.015Z,2.05
2022-11-28T23:53:29.435Z,1.88
2022-11-28T23:56:01.904Z,1.90
2022-11-28T23:58:29.461Z,1.83
